Terminal Aerodrome Forecast
Issued by NWS

Home | Current Version | Previous Version | Graphics & Text | Print | Product List | Glossary On
Versions: 1 2 3 4 5 6 7 8 9 10 11 12 13 14 15 16 17 18 19 20 21 22 23 24 25 26 27 28 29 30 31 32
000
FTUS43 KLOT 172300
TAFORD
TAF
KORD 172339Z 1800/1906 30008KT P6SM BKN025
     FM180800 31005KT P6SM SCT025
     FM181500 32005KT P6SM SCT020 BKN200=

USA.gov is the U.S. government's official web portal to all federal, state and local government web resources and services.